Decoded Metar for KHON (HURON in SD, USA) (IATA:HON) | Meteo·Mobile Aviation Weather
aviador You're here:

KHON Decoded Metar

HURON in SD, USA
Report Time2020-02-22 20:55:00
UTC Time2020-02-22 21:30:46
Flight Rules vfr VFR
Wind290° at 05 kt
W.Decomp.*RWY 30: 4.8 kt HW 1.5 kt LCW
RWY 35: 2.0 kt HW 4.6 kt LCW
Visibility9999 m
Phenomena:N/A
Clouds:N/A
Expected CloudBase > 2,000 ft AGL from Temp-Dew spread
CeilingNone
Temp03°C (ISA -9)
Dew Point-2°C (70% RH)
AAT-1.1°C
QNH1011 hPa
Density Alt282 ft
Elevation1,280 ft
Report Wrong Elevation
Raw Report
KHON 222055Z AUTO 29005KT 10SM CLR 03/M02 A2986 RMK AO2 SLP126
T00281022 56012=

Extra information for KHON:More info

Metar Taf Metar & Taf Last 4 Metars F.Rules Stats Wind Profile Meteogram Temp Stats Airport Information Weather charts Add Link Nearby VenuesMetar ALERT Operation Metar Decoded Social comments

AIRNAV info for KHON